createdAt,value
2022-08-28T00:02:15.789Z,6.53
2022-08-28T00:04:44.094Z,6.23
2022-08-28T00:07:12.614Z,6.20
2022-08-28T00:09:40.703Z,6.10
2022-08-28T00:12:09.450Z,5.90
2022-08-28T00:14:40.054Z,6.93
2022-08-28T00:17:08.120Z,6.80
2022-08-28T00:19:38.625Z,6.70
2022-08-28T00:22:07.637Z,6.77
2022-08-28T00:24:36.956Z,6.20
2022-08-28T00:27:23.087Z,6.40
2022-08-28T00:29:52.647Z,7.00
2022-08-28T00:32:23.776Z,6.70
2022-08-28T00:34:53.933Z,6.73
2022-08-28T00:37:24.773Z,6.50
2022-08-28T00:39:53.403Z,6.43
2022-08-28T00:42:21.999Z,6.67
2022-08-28T00:44:50.077Z,6.57
2022-08-28T00:47:19.864Z,6.33
2022-08-28T00:49:51.243Z,7.20
2022-08-28T00:52:20.617Z,6.80
2022-08-28T00:54:59.157Z,7.57
2022-08-28T00:57:32.181Z,7.03
2022-08-28T01:00:00.344Z,7.77
2022-08-28T01:02:31.959Z,7.50
2022-08-28T01:05:00.382Z,8.03
2022-08-28T01:07:28.448Z,7.77
2022-08-28T01:09:58.542Z,9.70
2022-08-28T01:12:30.261Z,8.17
2022-08-28T01:15:03.521Z,9.00
2022-08-28T01:17:37.809Z,10.30
2022-08-28T01:20:15.002Z,8.20
2022-08-28T01:22:50.400Z,9.80
2022-08-28T01:25:24.838Z,8.57
2022-08-28T01:27:52.908Z,8.67
2022-08-28T01:30:24.287Z,8.10
2022-08-28T01:32:55.034Z,8.33
2022-08-28T01:35:26.254Z,8.40
2022-08-28T01:37:56.225Z,8.43
2022-08-28T01:40:30.303Z,8.93
2022-08-28T01:43:08.618Z,7.80
2022-08-28T01:45:37.924Z,8.23
2022-08-28T01:48:07.005Z,7.80
2022-08-28T01:50:36.046Z,8.00
2022-08-28T01:53:06.465Z,8.50
2022-08-28T01:55:42.048Z,7.90
2022-08-28T01:58:11.996Z,7.67
2022-08-28T02:00:41.331Z,7.83
2022-08-28T02:03:10.070Z,7.33
2022-08-28T02:05:40.152Z,7.07
2022-08-28T02:08:09.388Z,7.17
2022-08-28T02:10:43.773Z,6.83
2022-08-28T02:13:13.009Z,7.87
2022-08-28T02:15:42.868Z,6.80
2022-08-28T02:18:11.502Z,6.43
2022-08-28T02:20:39.917Z,6.67
2022-08-28T02:23:08.097Z,6.63
2022-08-28T02:25:36.795Z,6.57
2022-08-28T02:28:06.698Z,5.90
2022-08-28T02:30:37.246Z,6.10
2022-08-28T02:33:05.714Z,6.90
2022-08-28T02:35:34.036Z,6.13
2022-08-28T02:38:02.966Z,6.30
2022-08-28T02:40:31.689Z,6.20
2022-08-28T02:43:00.361Z,5.90
2022-08-28T02:45:29.931Z,6.43
2022-08-28T02:47:58.047Z,6.13
2022-08-28T02:50:26.297Z,6.27
2022-08-28T02:52:55.087Z,6.50
2022-08-28T02:55:24.779Z,5.73
2022-08-28T02:57:54.709Z,6.43
2022-08-28T03:00:24.892Z,6.20
2022-08-28T03:02:54.947Z,6.40
2022-08-28T03:05:25.170Z,6.40
2022-08-28T03:07:54.730Z,6.37
2022-08-28T03:10:23.038Z,6.67
2022-08-28T03:12:51.894Z,6.50
2022-08-28T03:15:20.350Z,5.93
2022-08-28T03:17:48.698Z,6.10
2022-08-28T03:20:20.043Z,6.63
2022-08-28T03:23:05.433Z,6.43
2022-08-28T03:25:33.695Z,6.33
2022-08-28T03:28:01.875Z,6.43
2022-08-28T03:30:30.395Z,6.70
2022-08-28T03:32:58.643Z,7.40
2022-08-28T03:35:28.288Z,6.60
2022-08-28T03:37:56.636Z,6.70
2022-08-28T03:40:25.005Z,6.33
2022-08-28T03:42:53.794Z,6.73
2022-08-28T03:45:22.788Z,6.37
2022-08-28T03:47:51.508Z,6.60
2022-08-28T03:50:19.898Z,6.00
2022-08-28T03:52:49.651Z,6.60
2022-08-28T03:55:19.909Z,6.87
2022-08-28T03:57:48.109Z,6.63
2022-08-28T04:00:17.529Z,6.93
2022-08-28T04:02:46.310Z,6.57
2022-08-28T04:05:17.254Z,7.77
2022-08-28T04:07:45.718Z,6.93
2022-08-28T04:10:15.937Z,6.80
2022-08-28T04:12:44.879Z,7.60
2022-08-28T04:15:15.330Z,7.87
2022-08-28T04:17:43.784Z,8.03
2022-08-28T04:20:12.525Z,7.77
2022-08-28T04:22:41.015Z,9.60
2022-08-28T04:25:09.977Z,8.00
2022-08-28T04:27:40.345Z,7.77
2022-08-28T04:30:10.015Z,8.07
2022-08-28T04:32:39.833Z,8.27
2022-08-28T04:35:11.391Z,8.93
2022-08-28T04:37:40.335Z,8.53
2022-08-28T04:40:11.031Z,9.03
2022-08-28T04:42:45.301Z,8.97
2022-08-28T04:45:13.651Z,8.97
2022-08-28T04:47:41.934Z,7.67
2022-08-28T04:50:12.778Z,7.80
2022-08-28T04:52:40.736Z,7.97
2022-08-28T04:55:10.398Z,7.60
2022-08-28T04:57:38.710Z,8.50
2022-08-28T05:00:11.561Z,7.80
2022-08-28T05:02:40.070Z,7.90
2022-08-28T05:05:09.037Z,8.87
2022-08-28T05:07:37.119Z,8.80
2022-08-28T05:10:05.826Z,9.80
2022-08-28T05:12:35.895Z,9.73
2022-08-28T05:15:04.326Z,9.53
2022-08-28T05:17:34.411Z,9.67
2022-08-28T05:20:02.681Z,9.30
2022-08-28T05:22:32.266Z,9.87
2022-08-28T05:25:01.893Z,9.40
2022-08-28T05:27:30.613Z,9.10
2022-08-28T05:30:01.960Z,9.97
2022-08-28T05:32:30.640Z,9.10
2022-08-28T05:35:00.230Z,9.70
2022-08-28T05:37:28.625Z,8.60
2022-08-28T05:39:57.029Z,8.83
2022-08-28T05:42:29.499Z,8.50
2022-08-28T05:44:59.753Z,8.77
2022-08-28T05:47:27.918Z,7.60
2022-08-28T05:49:56.404Z,8.47
2022-08-28T05:52:26.470Z,7.03
2022-08-28T05:54:54.831Z,6.83
2022-08-28T05:57:23.063Z,7.67
2022-08-28T05:59:51.587Z,6.67
2022-08-28T06:02:19.667Z,7.50
2022-08-28T06:04:49.111Z,6.80
2022-08-28T06:07:17.587Z,7.10
2022-08-28T06:09:47.110Z,6.70
2022-08-28T06:12:15.747Z,6.33
2022-08-28T06:14:44.125Z,6.43
2022-08-28T06:17:13.072Z,6.00
2022-08-28T06:19:41.756Z,6.97
2022-08-28T06:22:12.567Z,6.27
2022-08-28T06:24:40.708Z,6.20
2022-08-28T06:27:10.205Z,5.97
2022-08-28T06:29:40.073Z,5.53
2022-08-28T06:32:09.188Z,6.10
2022-08-28T06:34:37.647Z,5.90
2022-08-28T06:37:08.552Z,5.97
2022-08-28T06:39:36.646Z,6.30
2022-08-28T06:42:05.581Z,6.20
2022-08-28T06:44:35.258Z,6.13
2022-08-28T06:47:03.551Z,6.27
2022-08-28T06:49:31.641Z,6.50
2022-08-28T06:52:00.221Z,6.33
2022-08-28T06:54:31.059Z,6.30
2022-08-28T06:56:59.442Z,7.00
2022-08-28T06:59:27.770Z,7.77
2022-08-28T07:01:57.281Z,6.50
2022-08-28T07:04:25.451Z,6.40
2022-08-28T07:06:54.915Z,5.87
2022-08-28T07:09:24.353Z,5.77
2022-08-28T07:11:52.615Z,5.20
2022-08-28T07:14:20.914Z,5.50
2022-08-28T07:16:49.055Z,5.20
2022-08-28T07:19:18.554Z,5.40
2022-08-28T07:21:48.330Z,5.10
2022-08-28T07:24:17.641Z,4.77
2022-08-28T07:26:47.114Z,5.20
2022-08-28T07:29:15.523Z,5.33
2022-08-28T07:31:45.458Z,4.60
2022-08-28T07:34:14.728Z,5.00
2022-08-28T07:36:44.942Z,4.77
2022-08-28T07:39:14.883Z,4.90
2022-08-28T07:41:43.768Z,4.87
2022-08-28T07:44:31.969Z,4.63
2022-08-28T07:47:04.549Z,4.60
2022-08-28T07:49:34.041Z,4.30
2022-08-28T07:52:04.267Z,4.10
2022-08-28T07:54:32.367Z,4.10
2022-08-28T07:57:02.387Z,4.50
2022-08-28T07:59:36.554Z,4.20
2022-08-28T08:02:07.968Z,4.03
2022-08-28T08:04:38.651Z,4.07
2022-08-28T08:07:09.141Z,4.10
2022-08-28T08:09:43.194Z,4.30
2022-08-28T08:12:13.911Z,3.97
2022-08-28T08:14:43.289Z,4.00
2022-08-28T08:17:12.140Z,3.60
2022-08-28T08:19:41.072Z,3.53
2022-08-28T08:22:14.213Z,3.47
2022-08-28T08:24:43.178Z,3.00
2022-08-28T08:27:11.703Z,27.57
2022-08-28T08:29:40.257Z,2.53
2022-08-28T08:32:11.958Z,2.53
2022-08-28T08:34:42.291Z,2.97
2022-08-28T08:37:11.961Z,2.37
2022-08-28T08:39:43.409Z,2.73
2022-08-28T08:42:22.395Z,4.20
2022-08-28T08:44:53.318Z,2.77
2022-08-28T08:47:24.214Z,2.30
2022-08-28T08:49:56.077Z,2.20
2022-08-28T08:52:40.100Z,2.60
2022-08-28T08:55:24.689Z,2.03
2022-08-28T08:58:03.002Z,2.10
2022-08-28T09:00:34.610Z,2.10
2022-08-28T09:03:10.523Z,2.10
2022-08-28T09:05:45.567Z,1.90
2022-08-28T09:08:23.082Z,1.80
2022-08-28T09:11:02.212Z,2.40
2022-08-28T09:13:42.600Z,1.87
2022-08-28T09:16:22.428Z,1.67
2022-08-28T09:18:51.218Z,1.70
2022-08-28T09:21:30.312Z,2.23
2022-08-28T09:24:05.494Z,2.03
2022-08-28T09:26:36.657Z,1.80
2022-08-28T09:29:11.589Z,1.90
2022-08-28T09:31:42.523Z,1.77
2022-08-28T09:34:30.273Z,1.90
2022-08-28T09:37:00.315Z,1.57
2022-08-28T09:39:30.770Z,2.07
2022-08-28T09:42:23.337Z,1.97
2022-08-28T09:44:59.786Z,1.80
2022-08-28T09:47:48.950Z,1.80
2022-08-28T09:50:24.722Z,1.60
2022-08-28T09:52:55.548Z,1.60
2022-08-28T09:55:33.146Z,1.50
2022-08-28T09:58:03.139Z,1.77
2022-08-28T10:00:35.628Z,1.50
2022-08-28T10:03:14.768Z,1.60
2022-08-28T10:06:00.444Z,1.43
2022-08-28T10:08:39.117Z,1.87
2022-08-28T10:11:20.589Z,1.40
2022-08-28T10:13:58.160Z,1.30
2022-08-28T10:16:36.869Z,1.30
2022-08-28T10:19:14.062Z,1.30
2022-08-28T10:21:47.192Z,1.30
2022-08-28T10:24:39.596Z,1.30
2022-08-28T10:27:15.045Z,1.30
2022-08-28T10:29:54.490Z,1.00
2022-08-28T10:32:43.199Z,1.10
2022-08-28T10:35:16.738Z,0.80
2022-08-28T10:37:59.037Z,1.00
2022-08-28T10:40:32.000Z,1.00
2022-08-28T10:43:07.449Z,1.00
2022-08-28T10:45:39.177Z,1.03
2022-08-28T10:48:11.398Z,0.90
2022-08-28T10:50:45.158Z,0.60
2022-08-28T10:53:17.484Z,0.50
2022-08-28T10:55:55.393Z,0.70
2022-08-28T10:58:27.568Z,0.80
2022-08-28T11:00:59.559Z,0.80
2022-08-28T11:03:36.919Z,0.77
2022-08-28T11:06:11.667Z,0.70
2022-08-28T11:08:41.220Z,0.80
2022-08-28T11:11:15.139Z,0.90
2022-08-28T11:13:51.932Z,1.20
2022-08-28T11:16:36.926Z,0.80
2022-08-28T11:19:52.278Z,1.20
2022-08-28T11:22:24.199Z,0.93
2022-08-28T11:25:04.418Z,1.03
2022-08-28T11:27:38.931Z,0.80
2022-08-28T11:30:34.282Z,1.03
2022-08-28T11:33:06.960Z,0.90
2022-08-28T11:35:45.335Z,0.80
2022-08-28T11:38:34.480Z,0.80
2022-08-28T11:41:14.647Z,0.80
2022-08-28T11:43:45.252Z,0.70
2022-08-28T11:46:31.563Z,0.70
2022-08-28T11:49:03.507Z,0.87
2022-08-28T11:51:44.918Z,0.90
2022-08-28T11:54:29.640Z,0.90
2022-08-28T11:57:09.342Z,0.80
2022-08-28T11:59:57.797Z,0.80
2022-08-28T12:02:49.578Z,0.70
2022-08-28T12:05:54.444Z,1.10
2022-08-28T12:09:11.155Z,0.70
2022-08-28T12:11:54.812Z,0.73
2022-08-28T12:15:07.943Z,0.97
2022-08-28T12:17:54.329Z,1.20
2022-08-28T12:20:36.713Z,4.83
2022-08-28T12:23:33.078Z,1.07
2022-08-28T12:26:04.273Z,1.00
2022-08-28T12:28:34.852Z,1.00
2022-08-28T12:31:48.228Z,0.63
2022-08-28T12:34:26.646Z,0.50
2022-08-28T12:36:59.860Z,0.70
2022-08-28T12:39:32.422Z,0.73
2022-08-28T12:42:03.079Z,0.50
2022-08-28T12:44:34.141Z,0.90
2022-08-28T12:47:02.340Z,0.80
2022-08-28T12:49:34.431Z,0.80
2022-08-28T12:52:16.633Z,0.77
2022-08-28T12:54:47.567Z,0.80
2022-08-28T12:57:18.560Z,1.60
2022-08-28T12:59:49.141Z,0.90
2022-08-28T13:02:27.124Z,0.80
2022-08-28T13:04:59.478Z,1.10
2022-08-28T13:07:31.360Z,1.10
2022-08-28T13:10:04.804Z,1.20
2022-08-28T13:12:55.851Z,1.00
2022-08-28T13:15:49.076Z,0.60
2022-08-28T13:18:43.898Z,1.00
2022-08-28T13:21:33.696Z,0.83
2022-08-28T13:24:27.519Z,0.80
2022-08-28T13:27:07.083Z,0.70
2022-08-28T13:29:38.863Z,0.67
2022-08-28T13:32:18.630Z,0.57
2022-08-28T13:35:09.665Z,0.70
2022-08-28T13:37:50.700Z,0.80
2022-08-28T13:40:46.620Z,1.70
2022-08-28T13:43:11.862Z,0.90
2022-08-28T13:45:44.024Z,0.57
2022-08-28T13:48:13.593Z,0.50
2022-08-28T13:50:44.815Z,0.50
2022-08-28T13:53:17.433Z,0.30
2022-08-28T13:55:46.170Z,0.40
2022-08-28T13:58:16.216Z,1.00
2022-08-28T14:00:47.264Z,0.60
2022-08-28T14:03:33.879Z,1.00
2022-08-28T14:06:03.267Z,0.47
2022-08-28T14:08:32.199Z,0.47
2022-08-28T14:11:00.496Z,0.43
2022-08-28T14:13:30.744Z,0.50
2022-08-28T14:15:59.582Z,0.60
2022-08-28T14:18:28.067Z,0.53
2022-08-28T14:20:56.427Z,1.00
2022-08-28T14:23:24.917Z,0.70
2022-08-28T14:25:52.983Z,0.70
2022-08-28T14:28:21.377Z,0.70
2022-08-28T14:30:52.748Z,0.83
2022-08-28T14:33:21.153Z,0.80
2022-08-28T14:35:50.255Z,1.20
2022-08-28T14:38:19.102Z,0.83
2022-08-28T14:40:47.359Z,0.80
2022-08-28T14:43:16.482Z,1.10
2022-08-28T14:45:47.069Z,0.73
2022-08-28T14:48:18.752Z,0.73
2022-08-28T14:50:48.458Z,0.70
2022-08-28T14:53:17.473Z,0.63
2022-08-28T14:55:48.623Z,0.80
2022-08-28T14:58:17.335Z,1.10
2022-08-28T15:00:49.054Z,0.80
2022-08-28T15:03:20.186Z,0.63
2022-08-28T15:05:48.735Z,0.60
2022-08-28T15:08:18.518Z,0.70
2022-08-28T15:10:48.866Z,0.90
2022-08-28T15:13:17.317Z,1.10
2022-08-28T15:15:45.513Z,0.80
2022-08-28T15:18:13.955Z,0.80
2022-08-28T15:20:46.400Z,0.90
2022-08-28T15:23:16.608Z,0.80
2022-08-28T15:25:44.921Z,0.80
2022-08-28T15:28:13.536Z,0.70
2022-08-28T15:30:42.497Z,1.10
2022-08-28T15:33:10.786Z,0.83
2022-08-28T15:35:39.267Z,0.73
2022-08-28T15:38:10.223Z,1.50
2022-08-28T15:40:55.815Z,1.17
2022-08-28T15:43:24.181Z,1.10
2022-08-28T15:45:52.565Z,0.70
2022-08-28T15:48:20.831Z,0.80
2022-08-28T15:50:49.208Z,0.80
2022-08-28T15:53:19.459Z,1.37
2022-08-28T15:55:48.020Z,1.00
2022-08-28T15:58:16.369Z,1.03
2022-08-28T16:00:44.838Z,0.90
2022-08-28T16:03:13.156Z,0.70
2022-08-28T16:05:41.574Z,0.70
2022-08-28T16:08:10.787Z,1.10
2022-08-28T16:10:41.113Z,1.20
2022-08-28T16:13:09.674Z,1.20
2022-08-28T16:15:38.089Z,0.80
2022-08-28T16:18:09.500Z,0.63
2022-08-28T16:20:38.204Z,0.70
2022-08-28T16:23:06.800Z,0.50
2022-08-28T16:25:35.780Z,0.67
2022-08-28T16:28:06.611Z,1.67
2022-08-28T16:30:38.591Z,0.63
2022-08-28T16:33:12.714Z,0.90
2022-08-28T16:35:54.855Z,0.60
2022-08-28T16:38:24.403Z,0.60
2022-08-28T16:40:52.790Z,0.87
2022-08-28T16:43:22.338Z,0.90
2022-08-28T16:45:51.212Z,0.73
2022-08-28T16:48:19.621Z,1.23
2022-08-28T16:50:47.696Z,1.33
2022-08-28T16:53:16.065Z,1.30
2022-08-28T16:55:52.725Z,1.50
2022-08-28T16:58:22.301Z,0.80
2022-08-28T17:00:52.585Z,1.00
2022-08-28T17:03:26.495Z,1.00
2022-08-28T17:05:56.304Z,1.20
2022-08-28T17:08:25.279Z,1.40
2022-08-28T17:10:53.956Z,1.10
2022-08-28T17:13:23.695Z,1.30
2022-08-28T17:15:52.272Z,1.10
2022-08-28T17:18:20.475Z,1.10
2022-08-28T17:21:06.133Z,1.17
2022-08-28T17:23:38.845Z,1.20
2022-08-28T17:26:10.462Z,1.30
2022-08-28T17:28:40.636Z,1.00
2022-08-28T17:31:11.755Z,3.80
2022-08-28T17:33:41.109Z,1.10
2022-08-28T17:36:17.087Z,1.30
2022-08-28T17:39:01.616Z,1.23
2022-08-28T17:41:30.111Z,1.60
2022-08-28T17:43:59.639Z,1.17
2022-08-28T17:46:27.974Z,1.30
2022-08-28T17:48:56.409Z,0.90
2022-08-28T17:51:33.804Z,0.80
2022-08-28T17:54:13.018Z,1.10
2022-08-28T17:56:41.485Z,0.90
2022-08-28T17:59:11.153Z,0.90
2022-08-28T18:01:45.219Z,0.90
2022-08-28T18:04:21.636Z,0.80
2022-08-28T18:06:54.821Z,12.03
2022-08-28T18:09:24.499Z,0.80
2022-08-28T18:11:53.119Z,9.03
2022-08-28T18:14:23.221Z,2.20
2022-08-28T18:16:51.376Z,3.90
2022-08-28T18:19:20.228Z,0.80
2022-08-28T18:21:48.394Z,7.63
2022-08-28T18:24:17.384Z,0.80
2022-08-28T18:26:47.459Z,0.60
2022-08-28T18:29:16.094Z,0.60
2022-08-28T18:31:46.062Z,0.50
2022-08-28T18:34:14.263Z,1.00
2022-08-28T18:36:42.856Z,0.80
2022-08-28T18:39:12.127Z,0.80
2022-08-28T18:41:43.790Z,1.00
2022-08-28T18:44:14.074Z,1.00
2022-08-28T18:46:42.781Z,2.73
2022-08-28T18:49:13.149Z,0.80
2022-08-28T18:51:45.648Z,1.93
2022-08-28T18:54:16.002Z,1.93
2022-08-28T18:56:45.393Z,0.90
2022-08-28T18:59:14.041Z,1.10
2022-08-28T19:01:42.430Z,3.00
2022-08-28T19:04:12.262Z,1.10
2022-08-28T19:06:42.649Z,0.97
2022-08-28T19:09:19.299Z,0.90
2022-08-28T19:11:49.322Z,0.83
2022-08-28T19:14:17.837Z,0.70
2022-08-28T19:16:46.134Z,0.77
2022-08-28T19:19:16.143Z,0.80
2022-08-28T19:21:44.351Z,1.00
2022-08-28T19:24:16.549Z,1.00
2022-08-28T19:26:45.230Z,0.87
2022-08-28T19:29:13.860Z,0.70
2022-08-28T19:31:43.762Z,0.80
2022-08-28T19:34:13.097Z,1.20
2022-08-28T19:36:42.912Z,1.00
2022-08-28T19:39:11.357Z,0.70
2022-08-28T19:41:40.085Z,0.80
2022-08-28T19:44:09.105Z,0.83
2022-08-28T19:46:39.145Z,0.60
2022-08-28T19:49:08.262Z,0.50
2022-08-28T19:51:37.713Z,1.03
2022-08-28T19:54:11.235Z,0.90
2022-08-28T19:56:40.139Z,2.27
2022-08-28T19:59:09.132Z,2.33
2022-08-28T20:01:40.256Z,0.70
2022-08-28T20:04:10.292Z,0.60
2022-08-28T20:06:41.696Z,0.60
2022-08-28T20:09:13.030Z,0.70
2022-08-28T20:11:42.449Z,0.63
2022-08-28T20:14:10.675Z,0.60
2022-08-28T20:16:41.402Z,0.70
2022-08-28T20:19:11.323Z,0.70
2022-08-28T20:21:41.207Z,0.63
2022-08-28T20:24:14.333Z,0.60
2022-08-28T20:26:42.815Z,0.57
2022-08-28T20:29:12.347Z,0.80
2022-08-28T20:31:42.284Z,0.80
2022-08-28T20:34:11.834Z,0.73
2022-08-28T20:36:40.469Z,0.70
2022-08-28T20:39:11.275Z,0.73
2022-08-28T20:41:41.483Z,0.73
2022-08-28T20:44:13.063Z,0.80
2022-08-28T20:46:42.368Z,0.70
2022-08-28T20:49:11.755Z,1.10
2022-08-28T20:51:57.093Z,1.00
2022-08-28T20:54:30.602Z,1.20
2022-08-28T20:57:02.034Z,1.10
2022-08-28T20:59:37.116Z,1.40
2022-08-28T21:02:10.542Z,1.57
2022-08-28T21:04:40.565Z,1.23
2022-08-28T21:07:09.192Z,1.03
2022-08-28T21:10:06.340Z,1.43
2022-08-28T21:12:28.829Z,1.40
2022-08-28T21:14:57.455Z,1.10
2022-08-28T21:17:29.464Z,1.23
2022-08-28T21:19:59.786Z,1.40
2022-08-28T21:22:28.054Z,1.20
2022-08-28T21:24:57.660Z,1.20
2022-08-28T21:27:26.006Z,1.30
2022-08-28T21:29:56.586Z,1.30
2022-08-28T21:32:24.702Z,1.13
2022-08-28T21:34:53.483Z,1.23
2022-08-28T21:37:21.934Z,1.30
2022-08-28T21:39:49.955Z,1.33
2022-08-28T21:42:19.934Z,1.37
2022-08-28T21:44:51.437Z,1.27
2022-08-28T21:47:20.039Z,1.30
2022-08-28T21:49:49.654Z,1.60
2022-08-28T21:52:18.242Z,1.33
2022-08-28T21:54:46.542Z,1.20
2022-08-28T21:57:15.170Z,1.10
2022-08-28T21:59:44.786Z,1.40
2022-08-28T22:02:13.176Z,1.37
2022-08-28T22:04:41.408Z,1.53
2022-08-28T22:07:11.269Z,1.00
2022-08-28T22:09:39.493Z,1.30
2022-08-28T22:12:09.218Z,1.30
2022-08-28T22:14:37.791Z,1.17
2022-08-28T22:17:11.570Z,1.20
2022-08-28T22:19:40.452Z,1.30
2022-08-28T22:22:40.982Z,1.70
2022-08-28T22:25:09.733Z,1.20
2022-08-28T22:27:37.945Z,1.00
2022-08-28T22:30:06.730Z,1.10
2022-08-28T22:32:36.518Z,1.13
2022-08-28T22:35:05.030Z,1.13
2022-08-28T22:37:33.788Z,1.13
2022-08-28T22:40:02.042Z,1.33
2022-08-28T22:42:38.339Z,1.30
2022-08-28T22:45:09.952Z,1.10
2022-08-28T22:47:39.705Z,1.10
2022-08-28T22:50:09.393Z,1.00
2022-08-28T22:52:38.136Z,1.43
2022-08-28T22:55:10.551Z,0.97
2022-08-28T22:57:40.981Z,1.17
2022-08-28T23:00:12.851Z,1.00
2022-08-28T23:02:43.235Z,0.97
2022-08-28T23:05:11.540Z,0.90
2022-08-28T23:07:39.564Z,1.00
2022-08-28T23:10:09.647Z,1.00
2022-08-28T23:12:38.190Z,0.93
2022-08-28T23:15:07.875Z,1.00
2022-08-28T23:17:36.593Z,1.00
2022-08-28T23:20:09.995Z,0.90
2022-08-28T23:22:39.124Z,1.07
2022-08-28T23:25:08.811Z,1.20
2022-08-28T23:27:37.072Z,1.03
2022-08-28T23:30:07.368Z,1.00
2022-08-28T23:32:35.744Z,1.20
2022-08-28T23:35:07.686Z,1.00
2022-08-28T23:37:37.623Z,1.10
2022-08-28T23:40:08.697Z,0.83
2022-08-28T23:42:37.167Z,1.00
2022-08-28T23:45:07.940Z,0.97
2022-08-28T23:47:40.326Z,0.70
2022-08-28T23:50:14.039Z,0.90
2022-08-28T23:52:43.209Z,0.80
2022-08-28T23:55:13.305Z,0.87
2022-08-28T23:57:41.698Z,0.90
